createdAt,value
2023-02-01T00:05:01.089Z,42.7
2023-02-01T00:10:01.315Z,42.7
2023-02-01T00:15:01.399Z,42.8
2023-02-01T00:25:01.527Z,42.7
2023-02-01T00:30:01.115Z,42.7
2023-02-01T00:35:01.659Z,42.7
2023-02-01T00:40:01.383Z,42.7
2023-02-01T00:45:00.546Z,42.7
2023-02-01T00:55:01.267Z,42.7
2023-02-01T01:05:01.365Z,42.6
2023-02-01T01:10:01.053Z,42.6
2023-02-01T01:15:01.090Z,42.6
2023-02-01T01:25:01.315Z,42.4
2023-02-01T01:30:01.121Z,42.4
2023-02-01T01:35:01.407Z,42.4
2023-02-01T01:45:01.011Z,42.7
2023-02-01T01:55:01.584Z,42.7
2023-02-01T02:05:01.575Z,42.8
2023-02-01T02:10:01.851Z,42.8
2023-02-01T02:15:01.084Z,42.8
2023-02-01T02:25:01.484Z,42.6
2023-02-01T02:35:01.366Z,42.6
2023-02-01T02:45:00.554Z,42.7
2023-02-01T02:50:01.361Z,42.7
2023-02-01T02:55:01.480Z,42.7
2023-02-01T03:05:01.359Z,42.7
2023-02-01T03:10:01.004Z,42.7
2023-02-01T03:15:01.057Z,42.7
2023-02-01T03:25:01.317Z,42.7
2023-02-01T03:30:01.089Z,42.7
2023-02-01T03:35:01.656Z,42.7
2023-02-01T03:45:01.440Z,42.6
2023-02-01T03:50:01.340Z,42.6
2023-02-01T03:55:01.150Z,42.5
2023-02-01T04:05:01.277Z,42.8
2023-02-01T04:10:01.185Z,43.2
2023-02-01T04:15:01.455Z,43.4
2023-02-01T04:25:01.526Z,43.7
2023-02-01T04:30:01.076Z,43.7
2023-02-01T04:35:01.318Z,43.8
2023-02-01T04:40:01.701Z,43.8
2023-02-01T04:45:01.381Z,43.8
2023-02-01T04:50:01.186Z,43.8
2023-02-01T04:55:01.136Z,43.9
2023-02-01T05:05:01.201Z,43.9
2023-02-01T05:10:02.959Z,43.9
2023-02-01T05:15:01.133Z,43.9
2023-02-01T05:25:01.351Z,44.0
2023-02-01T05:30:01.311Z,44.0
2023-02-01T05:35:01.374Z,44.0
2023-02-01T05:45:01.558Z,44.0
2023-02-01T05:50:01.102Z,44.1
2023-02-01T05:55:02.207Z,44.0
2023-02-01T06:05:01.643Z,44.0
2023-02-01T06:10:01.032Z,44.0
2023-02-01T06:15:01.040Z,44.1
2023-02-01T06:25:01.483Z,44.0
2023-02-01T06:30:01.303Z,44.1
2023-02-01T06:35:02.070Z,44.1
2023-02-01T06:40:01.142Z,44.1
2023-02-01T06:45:01.398Z,44.1
2023-02-01T06:50:01.051Z,44.1
2023-02-01T06:55:01.073Z,44.1
2023-02-01T07:05:01.123Z,44.1
2023-02-01T07:10:01.117Z,44.1
2023-02-01T07:15:01.091Z,44.1
2023-02-01T07:25:01.405Z,44.0
2023-02-01T07:30:01.326Z,44.0
2023-02-01T07:35:01.382Z,43.9
2023-02-01T07:40:01.183Z,43.9
2023-02-01T07:45:20.733Z,43.8
2023-02-01T07:50:01.096Z,43.9
2023-02-01T07:55:01.108Z,43.9
2023-02-01T08:00:01.378Z,43.9
2023-02-01T08:05:01.363Z,43.9
2023-02-01T08:10:01.330Z,43.9
2023-02-01T08:15:01.364Z,43.8
2023-02-01T08:20:01.096Z,43.8
2023-02-01T08:25:02.170Z,43.8
2023-02-01T08:30:01.401Z,43.8
2023-02-01T08:35:01.184Z,43.8
2023-02-01T08:45:01.153Z,43.7
2023-02-01T08:50:01.300Z,43.7
2023-02-01T08:55:01.551Z,43.7
2023-02-01T09:05:01.143Z,43.6
2023-02-01T09:10:01.369Z,43.6
2023-02-01T09:15:01.339Z,43.5
2023-02-01T09:25:01.438Z,43.5
2023-02-01T09:30:01.706Z,43.5
2023-02-01T09:35:02.347Z,43.4
2023-02-01T09:45:01.166Z,43.4
2023-02-01T09:50:00.519Z,43.4
2023-02-01T09:55:02.381Z,43.4
2023-02-01T10:05:02.387Z,43.4
2023-02-01T10:15:01.124Z,43.4
2023-02-01T10:20:01.124Z,43.4
2023-02-01T10:25:01.705Z,43.4
2023-02-01T10:35:01.267Z,43.4
2023-02-01T10:45:01.225Z,43.4
2023-02-01T10:55:01.678Z,43.4
2023-02-01T11:00:02.832Z,43.4
2023-02-01T11:05:01.599Z,43.4
2023-02-01T11:10:01.359Z,43.4
2023-02-01T11:15:01.492Z,43.4
2023-02-01T11:20:01.108Z,43.4
2023-02-01T11:25:01.166Z,43.4
2023-02-01T11:35:01.269Z,43.4
2023-02-01T11:40:01.668Z,43.4
2023-02-01T11:45:01.066Z,43.4
2023-02-01T11:50:01.123Z,43.4
2023-02-01T11:55:02.812Z,43.4
2023-02-01T12:05:01.283Z,43.4
2023-02-01T12:10:01.100Z,43.3
2023-02-01T12:15:01.781Z,43.4
2023-02-01T12:20:01.348Z,43.4
2023-02-01T12:25:01.131Z,43.3
2023-02-01T12:30:01.206Z,43.3
2023-02-01T12:35:01.329Z,43.3
2023-02-01T12:45:01.678Z,43.2
2023-02-01T12:50:01.620Z,43.2
2023-02-01T12:55:02.508Z,43.2
2023-02-01T13:05:01.164Z,43.1
2023-02-01T13:10:01.086Z,43.1
2023-02-01T13:15:01.998Z,43.0
2023-02-01T13:25:01.187Z,42.9
2023-02-01T13:30:01.658Z,43.0
2023-02-01T13:35:01.387Z,42.9
2023-02-01T13:45:01.122Z,42.9
2023-02-01T13:50:01.101Z,42.9
2023-02-01T13:55:01.153Z,42.9
2023-02-01T14:05:02.830Z,42.9
2023-02-01T14:10:00.881Z,42.9
2023-02-01T14:15:01.886Z,42.8
2023-02-01T14:25:01.246Z,42.8
2023-02-01T14:30:01.126Z,42.8
2023-02-01T14:35:01.607Z,42.8
2023-02-01T14:45:01.366Z,42.8
2023-02-01T14:50:01.054Z,42.8
2023-02-01T14:55:02.831Z,42.7
2023-02-01T15:05:01.498Z,42.7
2023-02-01T15:10:01.103Z,42.7
2023-02-01T15:15:03.000Z,42.6
2023-02-01T15:25:01.180Z,42.6
2023-02-01T15:30:01.585Z,42.6
2023-02-01T15:35:01.288Z,42.6
2023-02-01T15:45:02.189Z,42.6
2023-02-01T15:50:01.053Z,42.6
2023-02-01T15:55:01.619Z,42.6
2023-02-01T16:05:01.055Z,42.7
2023-02-01T16:15:01.071Z,42.6
2023-02-01T16:25:01.086Z,42.6
2023-02-01T16:35:01.597Z,42.6
2023-02-01T16:45:01.371Z,42.7
2023-02-01T16:50:17.724Z,42.6
2023-02-01T16:55:01.157Z,42.0
2023-02-01T17:05:01.456Z,41.8
2023-02-01T17:15:01.640Z,42.4
2023-02-01T17:20:01.291Z,42.4
2023-02-01T17:25:00.571Z,42.4
2023-02-01T17:30:01.665Z,42.5
2023-02-01T17:35:01.389Z,42.5
2023-02-01T17:45:01.090Z,42.5
2023-02-01T17:55:01.265Z,42.5
2023-02-01T18:00:03.355Z,42.5
2023-02-01T18:05:01.268Z,42.5
2023-02-01T18:10:01.504Z,42.4
2023-02-01T18:15:01.388Z,42.5
2023-02-01T18:20:01.084Z,42.5
2023-02-01T18:25:01.239Z,42.5
2023-02-01T18:35:03.822Z,42.6
2023-02-01T18:40:01.311Z,42.6
2023-02-01T18:45:01.102Z,42.5
2023-02-01T18:50:02.270Z,42.5
2023-02-01T18:55:01.913Z,42.5
2023-02-01T19:00:01.601Z,42.4
2023-02-01T19:05:01.151Z,42.4
2023-02-01T19:15:01.655Z,42.4
2023-02-01T19:20:01.976Z,42.4
2023-02-01T19:25:03.732Z,42.4
2023-02-01T19:35:02.439Z,42.4
2023-02-01T19:40:01.996Z,42.3
2023-02-01T19:45:01.311Z,42.3
2023-02-01T19:55:01.176Z,43.2
2023-02-01T20:00:03.655Z,43.5
2023-02-01T20:05:00.493Z,43.7
2023-02-01T20:15:00.470Z,43.9
2023-02-01T20:20:00.468Z,43.9
2023-02-01T20:25:00.644Z,44.0
2023-02-01T20:30:01.132Z,44.3
2023-02-01T20:35:03.349Z,44.2
2023-02-01T20:40:03.837Z,44.7
2023-02-01T20:45:01.732Z,44.9
2023-02-01T20:55:02.354Z,44.9
2023-02-01T21:00:01.384Z,44.8
2023-02-01T21:05:01.184Z,44.7
2023-02-01T21:15:01.287Z,44.7
2023-02-01T21:20:02.226Z,44.5
2023-02-01T21:25:02.411Z,44.4
2023-02-01T21:35:01.097Z,44.4
2023-02-01T21:40:01.782Z,44.3
2023-02-01T21:45:01.207Z,44.4
2023-02-01T21:50:02.400Z,44.3
2023-02-01T21:55:01.616Z,44.3
2023-02-01T22:00:01.899Z,44.3
2023-02-01T22:05:03.125Z,44.3
2023-02-01T22:15:01.453Z,44.2
2023-02-01T22:20:01.141Z,44.2
2023-02-01T22:25:01.089Z,44.2
2023-02-01T22:35:02.081Z,44.1
2023-02-01T22:40:01.197Z,44.1
2023-02-01T22:45:02.609Z,44.1
2023-02-01T22:55:00.585Z,43.9
2023-02-01T23:00:02.200Z,43.8
2023-02-01T23:05:01.293Z,43.8
2023-02-01T23:15:02.769Z,43.7
2023-02-01T23:20:01.595Z,43.7
2023-02-01T23:25:01.151Z,43.7
2023-02-01T23:35:01.058Z,43.6
2023-02-01T23:40:01.153Z,43.6
2023-02-01T23:45:01.597Z,43.6
2023-02-01T23:50:01.266Z,43.6
2023-02-01T23:55:01.083Z,43.6
